sensor_id;sensor_type;location;lat;lon;timestamp;temperature;humidity
52859;DHT22;38721;53.098;6.596;2023-05-07T00:01:53;12.80;99.90
52859;DHT22;38721;53.098;6.596;2023-05-07T00:04:18;12.80;99.90
52859;DHT22;38721;53.098;6.596;2023-05-07T00:06:44;12.80;99.90
52859;DHT22;38721;53.098;6.596;2023-05-07T00:09:10;12.80;99.90
52859;DHT22;38721;53.098;6.596;2023-05-07T00:11:41;12.80;99.90
52859;DHT22;38721;53.098;6.596;2023-05-07T00:14:07;12.80;99.90
52859;DHT22;38721;53.098;6.596;2023-05-07T00:16:32;12.70;99.90
52859;DHT22;38721;53.098;6.596;2023-05-07T00:18:58;12.70;99.90
52859;DHT22;38721;53.098;6.596;2023-05-07T00:21:27;12.70;99.90
52859;DHT22;38721;53.098;6.596;2023-05-07T00:23:53;12.70;99.90
52859;DHT22;38721;53.098;6.596;2023-05-07T00:26:19;12.70;99.90
52859;DHT22;38721;53.098;6.596;2023-05-07T00:28:44;12.60;99.90
52859;DHT22;38721;53.098;6.596;2023-05-07T00:31:11;12.60;99.90
52859;DHT22;38721;53.098;6.596;2023-05-07T00:33:38;12.60;99.90
52859;DHT22;38721;53.098;6.596;2023-05-07T00:36:06;12.50;99.90
52859;DHT22;38721;53.098;6.596;2023-05-07T00:38:32;12.50;99.90
52859;DHT22;38721;53.098;6.596;2023-05-07T00:40:58;12.50;99.90
52859;DHT22;38721;53.098;6.596;2023-05-07T00:43:24;12.50;99.90
52859;DHT22;38721;53.098;6.596;2023-05-07T00:45:50;12.50;99.90
52859;DHT22;38721;53.098;6.596;2023-05-07T00:48:16;12.50;99.90
52859;DHT22;38721;53.098;6.596;2023-05-07T00:50:42;12.40;99.90
52859;DHT22;38721;53.098;6.596;2023-05-07T00:53:11;12.40;99.90
52859;DHT22;38721;53.098;6.596;2023-05-07T00:55:38;12.40;99.90
52859;DHT22;38721;53.098;6.596;2023-05-07T00:58:04;12.40;99.90
52859;DHT22;38721;53.098;6.596;2023-05-07T01:00:30;12.30;99.90
52859;DHT22;38721;53.098;6.596;2023-05-07T01:02:55;12.30;99.90
52859;DHT22;38721;53.098;6.596;2023-05-07T01:05:23;12.30;99.90
52859;DHT22;38721;53.098;6.596;2023-05-07T01:07:53;12.30;99.90
52859;DHT22;38721;53.098;6.596;2023-05-07T01:10:20;12.30;99.90
52859;DHT22;38721;53.098;6.596;2023-05-07T01:12:46;12.20;99.90
52859;DHT22;38721;53.098;6.596;2023-05-07T01:15:13;12.20;99.90
52859;DHT22;38721;53.098;6.596;2023-05-07T01:17:41;12.20;99.90
52859;DHT22;38721;53.098;6.596;2023-05-07T01:20:09;12.20;99.90
52859;DHT22;38721;53.098;6.596;2023-05-07T01:22:39;12.20;99.90
52859;DHT22;38721;53.098;6.596;2023-05-07T01:25:07;12.20;99.90
52859;DHT22;38721;53.098;6.596;2023-05-07T01:27:33;12.10;99.90
52859;DHT22;38721;53.098;6.596;2023-05-07T01:30:01;12.10;99.90
52859;DHT22;38721;53.098;6.596;2023-05-07T01:33:01;12.10;99.90
52859;DHT22;38721;53.098;6.596;2023-05-07T01:35:32;12.10;99.90
52859;DHT22;38721;53.098;6.596;2023-05-07T01:37:58;12.00;99.90
52859;DHT22;38721;53.098;6.596;2023-05-07T01:40:25;12.00;99.90
52859;DHT22;38721;53.098;6.596;2023-05-07T01:42:51;12.00;99.90
52859;DHT22;38721;53.098;6.596;2023-05-07T01:45:20;11.90;99.90
52859;DHT22;38721;53.098;6.596;2023-05-07T01:47:46;12.00;99.90
52859;DHT22;38721;53.098;6.596;2023-05-07T01:50:17;11.90;99.90
52859;DHT22;38721;53.098;6.596;2023-05-07T01:52:43;11.90;99.90
52859;DHT22;38721;53.098;6.596;2023-05-07T01:55:09;11.90;99.90
52859;DHT22;38721;53.098;6.596;2023-05-07T01:57:38;11.90;99.90
52859;DHT22;38721;53.098;6.596;2023-05-07T02:00:07;11.80;99.90
52859;DHT22;38721;53.098;6.596;2023-05-07T02:02:34;11.80;99.90
52859;DHT22;38721;53.098;6.596;2023-05-07T02:04:59;11.80;99.90
52859;DHT22;38721;53.098;6.596;2023-05-07T02:07:26;11.80;99.90
52859;DHT22;38721;53.098;6.596;2023-05-07T02:09:52;11.70;99.90
52859;DHT22;38721;53.098;6.596;2023-05-07T02:12:17;11.70;99.90
52859;DHT22;38721;53.098;6.596;2023-05-07T02:14:43;11.70;99.90
52859;DHT22;38721;53.098;6.596;2023-05-07T02:17:09;11.70;99.90
52859;DHT22;38721;53.098;6.596;2023-05-07T02:19:34;11.70;99.90
52859;DHT22;38721;53.098;6.596;2023-05-07T02:22:00;11.70;99.90
52859;DHT22;38721;53.098;6.596;2023-05-07T02:24:26;11.60;99.90
52859;DHT22;38721;53.098;6.596;2023-05-07T02:26:51;11.60;99.90
52859;DHT22;38721;53.098;6.596;2023-05-07T02:29:17;11.60;99.90
52859;DHT22;38721;53.098;6.596;2023-05-07T02:31:43;11.60;99.90
52859;DHT22;38721;53.098;6.596;2023-05-07T02:34:08;11.60;99.90
52859;DHT22;38721;53.098;6.596;2023-05-07T02:36:34;11.60;99.90
52859;DHT22;38721;53.098;6.596;2023-05-07T02:39:02;11.60;99.90
52859;DHT22;38721;53.098;6.596;2023-05-07T02:41:28;11.60;99.90
52859;DHT22;38721;53.098;6.596;2023-05-07T02:43:59;11.70;99.90
52859;DHT22;38721;53.098;6.596;2023-05-07T02:46:25;11.60;99.90
52859;DHT22;38721;53.098;6.596;2023-05-07T02:48:51;11.60;99.90
52859;DHT22;38721;53.098;6.596;2023-05-07T02:51:20;11.60;99.90
52859;DHT22;38721;53.098;6.596;2023-05-07T02:53:45;11.60;99.90
52859;DHT22;38721;53.098;6.596;2023-05-07T02:56:14;11.60;99.90
52859;DHT22;38721;53.098;6.596;2023-05-07T02:58:40;11.60;99.90
52859;DHT22;38721;53.098;6.596;2023-05-07T03:01:07;11.60;99.90
52859;DHT22;38721;53.098;6.596;2023-05-07T03:03:37;11.50;99.90
52859;DHT22;38721;53.098;6.596;2023-05-07T03:06:02;11.60;99.90
52859;DHT22;38721;53.098;6.596;2023-05-07T03:08:28;11.60;99.90
52859;DHT22;38721;53.098;6.596;2023-05-07T03:10:54;11.50;99.90
52859;DHT22;38721;53.098;6.596;2023-05-07T03:13:19;11.50;99.90
52859;DHT22;38721;53.098;6.596;2023-05-07T03:15:45;11.60;99.90
52859;DHT22;38721;53.098;6.596;2023-05-07T03:18:11;11.50;99.90
52859;DHT22;38721;53.098;6.596;2023-05-07T03:20:36;11.50;99.90
52859;DHT22;38721;53.098;6.596;2023-05-07T03:23:02;11.50;99.90
52859;DHT22;38721;53.098;6.596;2023-05-07T03:25:28;11.50;99.90
52859;DHT22;38721;53.098;6.596;2023-05-07T03:27:56;11.50;99.90
52859;DHT22;38721;53.098;6.596;2023-05-07T03:30:21;11.50;99.90
52859;DHT22;38721;53.098;6.596;2023-05-07T03:32:47;11.50;99.90
52859;DHT22;38721;53.098;6.596;2023-05-07T03:35:14;11.50;99.90
52859;DHT22;38721;53.098;6.596;2023-05-07T03:37:43;11.50;99.90
52859;DHT22;38721;53.098;6.596;2023-05-07T03:40:09;11.50;99.90
52859;DHT22;38721;53.098;6.596;2023-05-07T03:42:35;11.40;99.90
52859;DHT22;38721;53.098;6.596;2023-05-07T03:45:04;11.40;99.90
52859;DHT22;38721;53.098;6.596;2023-05-07T03:47:29;11.50;99.90
52859;DHT22;38721;53.098;6.596;2023-05-07T03:49:55;11.50;99.90
52859;DHT22;38721;53.098;6.596;2023-05-07T03:52:24;11.40;99.90
52859;DHT22;38721;53.098;6.596;2023-05-07T03:54:53;11.40;99.90
52859;DHT22;38721;53.098;6.596;2023-05-07T03:57:19;11.40;99.90
52859;DHT22;38721;53.098;6.596;2023-05-07T03:59:45;11.30;99.90
52859;DHT22;38721;53.098;6.596;2023-05-07T04:02:11;11.40;99.90
52859;DHT22;38721;53.098;6.596;2023-05-07T04:04:39;11.40;99.90
52859;DHT22;38721;53.098;6.596;2023-05-07T04:07:05;11.40;99.90
52859;DHT22;38721;53.098;6.596;2023-05-07T04:09:31;11.40;99.90
52859;DHT22;38721;53.098;6.596;2023-05-07T04:11:56;11.40;99.90
52859;DHT22;38721;53.098;6.596;2023-05-07T04:14:22;11.40;99.90
52859;DHT22;38721;53.098;6.596;2023-05-07T04:16:48;11.40;99.90
52859;DHT22;38721;53.098;6.596;2023-05-07T04:19:13;11.40;99.90
52859;DHT22;38721;53.098;6.596;2023-05-07T04:21:39;11.40;99.90
52859;DHT22;38721;53.098;6.596;2023-05-07T04:24:06;11.30;99.90
52859;DHT22;38721;53.098;6.596;2023-05-07T04:26:31;11.40;99.90
52859;DHT22;38721;53.098;6.596;2023-05-07T04:28:57;11.30;99.90
52859;DHT22;38721;53.098;6.596;2023-05-07T04:31:24;11.40;99.90
52859;DHT22;38721;53.098;6.596;2023-05-07T04:33:50;11.30;99.90
52859;DHT22;38721;53.098;6.596;2023-05-07T04:36:17;11.40;99.90
52859;DHT22;38721;53.098;6.596;2023-05-07T04:38:43;11.30;99.90
52859;DHT22;38721;53.098;6.596;2023-05-07T04:41:09;11.30;99.90
52859;DHT22;38721;53.098;6.596;2023-05-07T04:43:35;11.30;99.90
52859;DHT22;38721;53.098;6.596;2023-05-07T04:46:00;11.30;99.90
52859;DHT22;38721;53.098;6.596;2023-05-07T04:48:26;11.30;99.90
52859;DHT22;38721;53.098;6.596;2023-05-07T04:50:52;11.30;99.90
52859;DHT22;38721;53.098;6.596;2023-05-07T04:53:19;11.30;99.90
52859;DHT22;38721;53.098;6.596;2023-05-07T04:55:45;11.30;99.90
52859;DHT22;38721;53.098;6.596;2023-05-07T04:58:11;11.30;99.90
52859;DHT22;38721;53.098;6.596;2023-05-07T05:00:38;11.30;99.90
52859;DHT22;38721;53.098;6.596;2023-05-07T05:03:06;11.30;99.90
52859;DHT22;38721;53.098;6.596;2023-05-07T05:05:32;11.20;99.90
52859;DHT22;38721;53.098;6.596;2023-05-07T05:07:57;11.30;99.90
52859;DHT22;38721;53.098;6.596;2023-05-07T05:10:23;11.30;99.90
52859;DHT22;38721;53.098;6.596;2023-05-07T05:12:51;11.30;99.90
52859;DHT22;38721;53.098;6.596;2023-05-07T05:15:20;11.30;99.90
52859;DHT22;38721;53.098;6.596;2023-05-07T05:17:46;11.40;99.90
52859;DHT22;38721;53.098;6.596;2023-05-07T05:20:11;11.40;99.90
52859;DHT22;38721;53.098;6.596;2023-05-07T05:22:38;11.30;99.90
52859;DHT22;38721;53.098;6.596;2023-05-07T05:25:04;11.40;99.90
52859;DHT22;38721;53.098;6.596;2023-05-07T05:27:29;11.40;99.90
52859;DHT22;38721;53.098;6.596;2023-05-07T05:29:55;11.50;99.90
52859;DHT22;38721;53.098;6.596;2023-05-07T05:32:21;11.50;99.90
52859;DHT22;38721;53.098;6.596;2023-05-07T05:34:47;11.40;99.90
52859;DHT22;38721;53.098;6.596;2023-05-07T05:37:12;11.40;99.90
52859;DHT22;38721;53.098;6.596;2023-05-07T05:39:38;11.50;99.90
52859;DHT22;38721;53.098;6.596;2023-05-07T05:42:04;11.50;99.90
52859;DHT22;38721;53.098;6.596;2023-05-07T05:44:30;11.50;99.90
52859;DHT22;38721;53.098;6.596;2023-05-07T05:46:55;11.50;99.90
52859;DHT22;38721;53.098;6.596;2023-05-07T05:49:23;11.50;99.90
52859;DHT22;38721;53.098;6.596;2023-05-07T05:51:51;11.50;99.90
52859;DHT22;38721;53.098;6.596;2023-05-07T05:54:17;11.50;99.90
52859;DHT22;38721;53.098;6.596;2023-05-07T05:56:43;11.50;99.90
52859;DHT22;38721;53.098;6.596;2023-05-07T05:59:09;11.60;99.90
52859;DHT22;38721;53.098;6.596;2023-05-07T06:01:35;11.60;99.90
52859;DHT22;38721;53.098;6.596;2023-05-07T06:04:00;11.60;99.90
52859;DHT22;38721;53.098;6.596;2023-05-07T06:06:26;11.60;99.90
52859;DHT22;38721;53.098;6.596;2023-05-07T06:08:55;11.70;99.90
52859;DHT22;38721;53.098;6.596;2023-05-07T06:11:21;11.70;99.90
52859;DHT22;38721;53.098;6.596;2023-05-07T06:13:47;11.70;99.90
52859;DHT22;38721;53.098;6.596;2023-05-07T06:16:13;11.80;99.90
52859;DHT22;38721;53.098;6.596;2023-05-07T06:18:39;11.70;99.90
52859;DHT22;38721;53.098;6.596;2023-05-07T06:21:05;11.80;99.90
52859;DHT22;38721;53.098;6.596;2023-05-07T06:23:30;11.90;99.90
52859;DHT22;38721;53.098;6.596;2023-05-07T06:25:56;11.80;99.90
52859;DHT22;38721;53.098;6.596;2023-05-07T06:28:28;11.80;99.90
52859;DHT22;38721;53.098;6.596;2023-05-07T06:31:06;11.80;99.90
52859;DHT22;38721;53.098;6.596;2023-05-07T06:33:35;11.90;99.90
52859;DHT22;38721;53.098;6.596;2023-05-07T06:36:01;11.90;99.90
52859;DHT22;38721;53.098;6.596;2023-05-07T06:38:27;12.00;99.90
52859;DHT22;38721;53.098;6.596;2023-05-07T06:40:52;12.10;99.90
52859;DHT22;38721;53.098;6.596;2023-05-07T06:43:20;12.00;99.90
52859;DHT22;38721;53.098;6.596;2023-05-07T06:45:46;12.00;99.90
52859;DHT22;38721;53.098;6.596;2023-05-07T06:48:11;12.00;99.90
52859;DHT22;38721;53.098;6.596;2023-05-07T06:50:37;12.00;99.90
52859;DHT22;38721;53.098;6.596;2023-05-07T06:53:03;12.10;99.90
52859;DHT22;38721;53.098;6.596;2023-05-07T06:55:34;12.00;99.90
52859;DHT22;38721;53.098;6.596;2023-05-07T06:58:02;12.10;99.90
52859;DHT22;38721;53.098;6.596;2023-05-07T07:00:28;11.90;99.90
52859;DHT22;38721;53.098;6.596;2023-05-07T07:02:54;12.00;99.90
52859;DHT22;38721;53.098;6.596;2023-05-07T07:05:20;12.20;99.90
52859;DHT22;38721;53.098;6.596;2023-05-07T07:07:46;12.10;99.90
52859;DHT22;38721;53.098;6.596;2023-05-07T07:10:19;12.10;99.90
52859;DHT22;38721;53.098;6.596;2023-05-07T07:12:45;12.10;99.90
52859;DHT22;38721;53.098;6.596;2023-05-07T07:15:11;12.20;99.90
52859;DHT22;38721;53.098;6.596;2023-05-07T07:17:37;12.20;99.90
52859;DHT22;38721;53.098;6.596;2023-05-07T07:20:03;12.30;99.90
52859;DHT22;38721;53.098;6.596;2023-05-07T07:22:29;12.20;99.90
52859;DHT22;38721;53.098;6.596;2023-05-07T07:24:54;12.40;99.90
52859;DHT22;38721;53.098;6.596;2023-05-07T07:27:20;12.60;99.90
52859;DHT22;38721;53.098;6.596;2023-05-07T07:29:46;12.80;99.90
52859;DHT22;38721;53.098;6.596;2023-05-07T07:32:11;12.60;99.90
52859;DHT22;38721;53.098;6.596;2023-05-07T07:34:37;12.80;99.90
52859;DHT22;38721;53.098;6.596;2023-05-07T07:37:03;12.70;99.90
52859;DHT22;38721;53.098;6.596;2023-05-07T07:39:34;12.70;99.90
52859;DHT22;38721;53.098;6.596;2023-05-07T07:42:00;12.60;99.90
52859;DHT22;38721;53.098;6.596;2023-05-07T07:44:27;12.70;99.90
52859;DHT22;38721;53.098;6.596;2023-05-07T07:46:53;12.90;99.90
52859;DHT22;38721;53.098;6.596;2023-05-07T07:49:19;12.90;99.90
52859;DHT22;38721;53.098;6.596;2023-05-07T07:51:45;13.20;99.90
52859;DHT22;38721;53.098;6.596;2023-05-07T07:54:10;13.30;99.90
52859;DHT22;38721;53.098;6.596;2023-05-07T07:56:37;13.30;99.90
52859;DHT22;38721;53.098;6.596;2023-05-07T07:59:03;13.60;99.90
52859;DHT22;38721;53.098;6.596;2023-05-07T08:01:30;13.60;99.90
52859;DHT22;38721;53.098;6.596;2023-05-07T08:03:56;14.00;99.90
52859;DHT22;38721;53.098;6.596;2023-05-07T08:06:24;13.70;99.90
52859;DHT22;38721;53.098;6.596;2023-05-07T08:08:51;13.70;99.90
52859;DHT22;38721;53.098;6.596;2023-05-07T08:11:19;14.10;99.90
52859;DHT22;38721;53.098;6.596;2023-05-07T08:13:47;14.30;99.90
52859;DHT22;38721;53.098;6.596;2023-05-07T08:16:13;14.50;99.90
52859;DHT22;38721;53.098;6.596;2023-05-07T08:18:39;14.50;99.90
52859;DHT22;38721;53.098;6.596;2023-05-07T08:21:04;14.60;99.90
52859;DHT22;38721;53.098;6.596;2023-05-07T08:23:30;14.90;99.90
52859;DHT22;38721;53.098;6.596;2023-05-07T08:25:56;15.00;99.90
52859;DHT22;38721;53.098;6.596;2023-05-07T08:28:21;14.90;99.90
52859;DHT22;38721;53.098;6.596;2023-05-07T08:30:47;14.60;99.90
52859;DHT22;38721;53.098;6.596;2023-05-07T08:33:13;14.80;99.90
52859;DHT22;38721;53.098;6.596;2023-05-07T08:35:38;14.90;99.90
52859;DHT22;38721;53.098;6.596;2023-05-07T08:38:04;14.90;99.90
52859;DHT22;38721;53.098;6.596;2023-05-07T08:40:37;15.10;99.90
52859;DHT22;38721;53.098;6.596;2023-05-07T08:43:07;15.10;99.90
52859;DHT22;38721;53.098;6.596;2023-05-07T08:45:34;15.40;99.90
52859;DHT22;38721;53.098;6.596;2023-05-07T08:48:02;15.70;99.90
52859;DHT22;38721;53.098;6.596;2023-05-07T08:50:30;15.60;99.90
52859;DHT22;38721;53.098;6.596;2023-05-07T08:52:56;15.60;99.90
52859;DHT22;38721;53.098;6.596;2023-05-07T08:55:23;15.50;99.90
52859;DHT22;38721;53.098;6.596;2023-05-07T08:57:49;15.70;99.90
52859;DHT22;38721;53.098;6.596;2023-05-07T09:00:15;15.80;99.90
52859;DHT22;38721;53.098;6.596;2023-05-07T09:02:41;16.20;99.90
52859;DHT22;38721;53.098;6.596;2023-05-07T09:05:07;16.20;99.90
52859;DHT22;38721;53.098;6.596;2023-05-07T09:07:33;16.40;99.90
52859;DHT22;38721;53.098;6.596;2023-05-07T09:10:02;16.60;99.90
52859;DHT22;38721;53.098;6.596;2023-05-07T09:12:28;16.40;99.90
52859;DHT22;38721;53.098;6.596;2023-05-07T09:14:53;16.50;99.90
52859;DHT22;38721;53.098;6.596;2023-05-07T09:17:19;16.80;99.90
52859;DHT22;38721;53.098;6.596;2023-05-07T09:19:45;16.70;99.90
52859;DHT22;38721;53.098;6.596;2023-05-07T09:22:11;16.90;99.90
52859;DHT22;38721;53.098;6.596;2023-05-07T09:24:37;17.00;99.90
52859;DHT22;38721;53.098;6.596;2023-05-07T09:27:04;16.90;99.90
52859;DHT22;38721;53.098;6.596;2023-05-07T09:29:32;16.70;99.90
52859;DHT22;38721;53.098;6.596;2023-05-07T09:32:05;16.90;99.90
52859;DHT22;38721;53.098;6.596;2023-05-07T09:34:34;17.30;99.90
52859;DHT22;38721;53.098;6.596;2023-05-07T09:37:02;17.90;99.90
52859;DHT22;38721;53.098;6.596;2023-05-07T09:39:48;17.50;99.90
52859;DHT22;38721;53.098;6.596;2023-05-07T09:42:14;17.50;99.90
52859;DHT22;38721;53.098;6.596;2023-05-07T09:44:47;17.40;99.90
52859;DHT22;38721;53.098;6.596;2023-05-07T09:47:18;17.30;99.90
52859;DHT22;38721;53.098;6.596;2023-05-07T09:49:47;17.80;99.90
52859;DHT22;38721;53.098;6.596;2023-05-07T09:52:13;17.70;99.90
52859;DHT22;38721;53.098;6.596;2023-05-07T09:54:40;17.70;99.90
52859;DHT22;38721;53.098;6.596;2023-05-07T09:57:12;17.70;99.90
52859;DHT22;38721;53.098;6.596;2023-05-07T09:59:38;18.20;99.90
52859;DHT22;38721;53.098;6.596;2023-05-07T10:02:04;18.60;99.90
52859;DHT22;38721;53.098;6.596;2023-05-07T10:04:31;17.90;99.90
52859;DHT22;38721;53.098;6.596;2023-05-07T10:07:00;18.20;99.90
52859;DHT22;38721;53.098;6.596;2023-05-07T10:09:29;17.80;99.90
52859;DHT22;38721;53.098;6.596;2023-05-07T10:11:56;17.90;99.90
52859;DHT22;38721;53.098;6.596;2023-05-07T10:14:30;17.60;99.90
52859;DHT22;38721;53.098;6.596;2023-05-07T10:16:56;18.10;99.90
52859;DHT22;38721;53.098;6.596;2023-05-07T10:19:22;18.20;99.90
52859;DHT22;38721;53.098;6.596;2023-05-07T10:22:03;18.50;99.90
52859;DHT22;38721;53.098;6.596;2023-05-07T10:24:32;18.00;99.90
52859;DHT22;38721;53.098;6.596;2023-05-07T10:27:18;18.10;99.90
52859;DHT22;38721;53.098;6.596;2023-05-07T10:30:15;18.00;99.90
52859;DHT22;38721;53.098;6.596;2023-05-07T10:32:49;18.10;99.90
52859;DHT22;38721;53.098;6.596;2023-05-07T10:35:23;18.30;99.90
52859;DHT22;38721;53.098;6.596;2023-05-07T10:37:50;18.30;99.90
52859;DHT22;38721;53.098;6.596;2023-05-07T10:40:16;18.60;99.90
52859;DHT22;38721;53.098;6.596;2023-05-07T10:45:21;18.90;99.90
52859;DHT22;38721;53.098;6.596;2023-05-07T10:48:07;19.20;99.90
52859;DHT22;38721;53.098;6.596;2023-05-07T10:50:34;19.00;99.90
52859;DHT22;38721;53.098;6.596;2023-05-07T10:53:20;19.20;99.90
52859;DHT22;38721;53.098;6.596;2023-05-07T10:58:44;18.90;99.90
52859;DHT22;38721;53.098;6.596;2023-05-07T11:01:10;19.10;99.90
52859;DHT22;38721;53.098;6.596;2023-05-07T11:04:13;19.40;99.90
52859;DHT22;38721;53.098;6.596;2023-05-07T11:06:40;19.00;99.90
52859;DHT22;38721;53.098;6.596;2023-05-07T11:09:06;19.30;99.90
52859;DHT22;38721;53.098;6.596;2023-05-07T11:11:48;19.60;99.90
52859;DHT22;38721;53.098;6.596;2023-05-07T11:17:17;19.60;99.90
52859;DHT22;38721;53.098;6.596;2023-05-07T11:19:54;20.10;99.90
52859;DHT22;38721;53.098;6.596;2023-05-07T11:25:05;19.00;99.90
52859;DHT22;38721;53.098;6.596;2023-05-07T11:27:32;19.70;99.90
52859;DHT22;38721;53.098;6.596;2023-05-07T11:29:58;20.20;99.90
52859;DHT22;38721;53.098;6.596;2023-05-07T11:32:30;19.80;99.90
52859;DHT22;38721;53.098;6.596;2023-05-07T11:34:58;20.20;99.90
52859;DHT22;38721;53.098;6.596;2023-05-07T11:37:26;20.00;99.90
52859;DHT22;38721;53.098;6.596;2023-05-07T11:40:03;19.90;99.90
52859;DHT22;38721;53.098;6.596;2023-05-07T11:42:37;20.00;99.90
52859;DHT22;38721;53.098;6.596;2023-05-07T11:45:04;19.80;99.90
52859;DHT22;38721;53.098;6.596;2023-05-07T11:47:34;19.70;99.90
52859;DHT22;38721;53.098;6.596;2023-05-07T11:50:07;19.70;99.90
52859;DHT22;38721;53.098;6.596;2023-05-07T11:52:33;20.30;99.90
52859;DHT22;38721;53.098;6.596;2023-05-07T11:55:00;20.40;99.90
52859;DHT22;38721;53.098;6.596;2023-05-07T11:57:27;20.10;99.90
52859;DHT22;38721;53.098;6.596;2023-05-07T11:59:57;20.20;99.90
52859;DHT22;38721;53.098;6.596;2023-05-07T12:02:24;20.10;99.90
52859;DHT22;38721;53.098;6.596;2023-05-07T12:04:51;19.90;99.90
52859;DHT22;38721;53.098;6.596;2023-05-07T12:07:17;19.80;99.90
52859;DHT22;38721;53.098;6.596;2023-05-07T12:09:44;19.80;99.90
52859;DHT22;38721;53.098;6.596;2023-05-07T12:12:10;20.30;99.90
52859;DHT22;38721;53.098;6.596;2023-05-07T12:14:40;20.70;99.90
52859;DHT22;38721;53.098;6.596;2023-05-07T12:17:10;21.30;99.90
52859;DHT22;38721;53.098;6.596;2023-05-07T12:19:37;21.30;99.90
52859;DHT22;38721;53.098;6.596;2023-05-07T12:22:03;21.30;99.90
52859;DHT22;38721;53.098;6.596;2023-05-07T12:27:09;21.70;99.90
52859;DHT22;38721;53.098;6.596;2023-05-07T12:29:34;21.80;99.90
52859;DHT22;38721;53.098;6.596;2023-05-07T12:32:00;22.40;99.90
52859;DHT22;38721;53.098;6.596;2023-05-07T12:34:26;22.20;99.90
52859;DHT22;38721;53.098;6.596;2023-05-07T12:36:56;22.60;99.90
52859;DHT22;38721;53.098;6.596;2023-05-07T12:39:23;21.80;99.90
52859;DHT22;38721;53.098;6.596;2023-05-07T12:41:56;21.60;99.90
52859;DHT22;38721;53.098;6.596;2023-05-07T12:44:29;21.80;99.90
52859;DHT22;38721;53.098;6.596;2023-05-07T12:46:55;22.40;99.90
52859;DHT22;38721;53.098;6.596;2023-05-07T12:49:21;22.00;99.90
52859;DHT22;38721;53.098;6.596;2023-05-07T12:51:47;22.20;99.90
52859;DHT22;38721;53.098;6.596;2023-05-07T12:54:33;22.10;99.90
52859;DHT22;38721;53.098;6.596;2023-05-07T12:57:07;21.70;99.90
52859;DHT22;38721;53.098;6.596;2023-05-07T13:01:59;22.00;99.90
52859;DHT22;38721;53.098;6.596;2023-05-07T13:04:25;22.20;99.90
52859;DHT22;38721;53.098;6.596;2023-05-07T13:06:51;22.30;99.90
52859;DHT22;38721;53.098;6.596;2023-05-07T13:09:17;22.30;99.90
52859;DHT22;38721;53.098;6.596;2023-05-07T13:11:42;22.40;99.90
52859;DHT22;38721;53.098;6.596;2023-05-07T13:14:08;22.70;99.90
52859;DHT22;38721;53.098;6.596;2023-05-07T13:16:34;22.50;99.90
52859;DHT22;38721;53.098;6.596;2023-05-07T13:18:59;22.80;1.00
52859;DHT22;38721;53.098;6.596;2023-05-07T13:21:25;22.40;1.00
52859;DHT22;38721;53.098;6.596;2023-05-07T13:23:52;22.40;99.90
52859;DHT22;38721;53.098;6.596;2023-05-07T13:26:18;22.60;52.20
52859;DHT22;38721;53.098;6.596;2023-05-07T13:28:43;22.70;40.90
52859;DHT22;38721;53.098;6.596;2023-05-07T13:31:09;23.00;93.40
52859;DHT22;38721;53.098;6.596;2023-05-07T13:33:35;23.50;99.90
52859;DHT22;38721;53.098;6.596;2023-05-07T13:36:01;23.90;2.80
52859;DHT22;38721;53.098;6.596;2023-05-07T13:38:30;23.60;99.90
52859;DHT22;38721;53.098;6.596;2023-05-07T13:40:56;22.90;99.90
52859;DHT22;38721;53.098;6.596;2023-05-07T13:43:22;21.90;99.90
52859;DHT22;38721;53.098;6.596;2023-05-07T13:45:48;22.00;99.90
52859;DHT22;38721;53.098;6.596;2023-05-07T13:48:13;22.00;53.80
52859;DHT22;38721;53.098;6.596;2023-05-07T13:50:39;22.40;99.90
52859;DHT22;38721;53.098;6.596;2023-05-07T13:53:05;23.20;99.90
52859;DHT22;38721;53.098;6.596;2023-05-07T13:55:30;23.70;1.00
52859;DHT22;38721;53.098;6.596;2023-05-07T13:58:00;24.00;99.90
52859;DHT22;38721;53.098;6.596;2023-05-07T14:00:27;24.10;99.90
52859;DHT22;38721;53.098;6.596;2023-05-07T14:02:54;23.90;99.90
52859;DHT22;38721;53.098;6.596;2023-05-07T14:05:20;24.00;99.90
52859;DHT22;38721;53.098;6.596;2023-05-07T14:07:51;23.50;99.90
52859;DHT22;38721;53.098;6.596;2023-05-07T14:10:18;24.10;99.90
52859;DHT22;38721;53.098;6.596;2023-05-07T14:12:44;24.50;99.90
52859;DHT22;38721;53.098;6.596;2023-05-07T14:15:10;24.60;99.90
52859;DHT22;38721;53.098;6.596;2023-05-07T14:17:37;24.60;99.90
52859;DHT22;38721;53.098;6.596;2023-05-07T14:20:03;25.60;1.00
52859;DHT22;38721;53.098;6.596;2023-05-07T14:22:32;25.90;99.90
52859;DHT22;38721;53.098;6.596;2023-05-07T14:24:58;25.20;40.00
52859;DHT22;38721;53.098;6.596;2023-05-07T14:27:23;24.80;1.00
52859;DHT22;38721;53.098;6.596;2023-05-07T14:29:49;25.10;99.90
52859;DHT22;38721;53.098;6.596;2023-05-07T14:32:19;25.80;99.90
52859;DHT22;38721;53.098;6.596;2023-05-07T14:34:45;26.30;99.90
52859;DHT22;38721;53.098;6.596;2023-05-07T14:37:11;25.30;99.90
52859;DHT22;38721;53.098;6.596;2023-05-07T14:39:37;24.80;99.90
52859;DHT22;38721;53.098;6.596;2023-05-07T14:42:03;23.80;64.50
52859;DHT22;38721;53.098;6.596;2023-05-07T14:44:30;23.80;99.90
52859;DHT22;38721;53.098;6.596;2023-05-07T14:46:56;22.80;99.90
52859;DHT22;38721;53.098;6.596;2023-05-07T14:49:22;23.20;99.90
52859;DHT22;38721;53.098;6.596;2023-05-07T14:51:48;23.00;99.90
52859;DHT22;38721;53.098;6.596;2023-05-07T14:54:14;23.20;67.10
52859;DHT22;38721;53.098;6.596;2023-05-07T14:56:40;23.30;13.40
52859;DHT22;38721;53.098;6.596;2023-05-07T14:59:06;23.00;99.90
52859;DHT22;38721;53.098;6.596;2023-05-07T15:01:32;22.50;99.90
52859;DHT22;38721;53.098;6.596;2023-05-07T15:03:58;22.80;20.50
52859;DHT22;38721;53.098;6.596;2023-05-07T15:06:23;22.80;1.00
52859;DHT22;38721;53.098;6.596;2023-05-07T15:08:49;23.10;99.90
52859;DHT22;38721;53.098;6.596;2023-05-07T15:11:15;23.50;99.90
52859;DHT22;38721;53.098;6.596;2023-05-07T15:13:44;23.50;99.90
52859;DHT22;38721;53.098;6.596;2023-05-07T15:16:10;23.10;99.90
52859;DHT22;38721;53.098;6.596;2023-05-07T15:18:36;23.20;99.90
52859;DHT22;38721;53.098;6.596;2023-05-07T15:21:02;23.30;99.90
52859;DHT22;38721;53.098;6.596;2023-05-07T15:23:27;23.10;1.00
52859;DHT22;38721;53.098;6.596;2023-05-07T15:25:53;23.30;99.90
52859;DHT22;38721;53.098;6.596;2023-05-07T15:28:19;23.50;99.90
52859;DHT22;38721;53.098;6.596;2023-05-07T15:30:45;23.80;1.30
52859;DHT22;38721;53.098;6.596;2023-05-07T15:33:11;24.40;99.90
52859;DHT22;38721;53.098;6.596;2023-05-07T15:35:37;24.20;1.00
52859;DHT22;38721;53.098;6.596;2023-05-07T15:38:02;24.30;99.90
52859;DHT22;38721;53.098;6.596;2023-05-07T15:40:29;23.60;99.90
52859;DHT22;38721;53.098;6.596;2023-05-07T15:42:55;23.20;99.90
52859;DHT22;38721;53.098;6.596;2023-05-07T15:45:22;22.60;99.90
52859;DHT22;38721;53.098;6.596;2023-05-07T15:47:48;22.60;99.90
52859;DHT22;38721;53.098;6.596;2023-05-07T15:50:13;22.40;99.90